Map

Track Data

SID SEASON NUMBER BASIN SUBBASIN NAME ISO_TIME NATURE LAT LON WMO_WIND WMO_PRES WMO_AGENCY TRACK_TYPE DIST2LAND LANDFALL IFLAG USA_AGENCY USA_ATCF_ID USA_LAT USA_LON USA_RECORD USA_STATUS USA_WIND USA_PRES USA_SSHS USA_R34_NE USA_R34_SE USA_R34_SW USA_R34_NW USA_R50_NE USA_R50_SE USA_R50_SW USA_R50_NW USA_R64_NE USA_R64_SE USA_R64_SW USA_R64_NW USA_POCI USA_ROCI USA_RMW USA_EYE TOKYO_LAT TOKYO_LON TOKYO_GRADE TOKYO_WIND TOKYO_PRES TOKYO_R50_DIR TOKYO_R50_LONG TOKYO_R50_SHORT TOKYO_R30_DIR TOKYO_R30_LONG TOKYO_R30_SHORT TOKYO_LAND CMA_LAT CMA_LON CMA_CAT CMA_WIND CMA_PRES HKO_LAT HKO_LON HKO_CAT HKO_WIND HKO_PRES NEWDELHI_LAT NEWDELHI_LON NEWDELHI_GRADE NEWDELHI_WIND NEWDELHI_PRES NEWDELHI_CI NEWDELHI_DP NEWDELHI_POCI REUNION_LAT REUNION_LON REUNION_TYPE REUNION_WIND REUNION_PRES REUNION_TNUM REUNION_CI REUNION_RMW REUNION_R34_NE REUNION_R34_SE REUNION_R34_SW REUNION_R34_NW REUNION_R50_NE REUNION_R50_SE REUNION_R50_SW REUNION_R50_NW REUNION_R64_NE REUNION_R64_SE REUNION_R64_SW REUNION_R64_NW BOM_LAT BOM_LON BOM_TYPE BOM_WIND BOM_PRES BOM_TNUM BOM_CI BOM_RMW BOM_R34_NE BOM_R34_SE BOM_R34_SW BOM_R34_NW BOM_R50_NE BOM_R50_SE BOM_R50_SW BOM_R50_NW BOM_R64_NE BOM_R64_SE BOM_R64_SW BOM_R64_NW BOM_ROCI BOM_POCI BOM_EYE BOM_POS_METHOD BOM_PRES_METHOD NADI_LAT NADI_LON NADI_CAT NADI_WIND NADI_PRES WELLINGTON_LAT WELLINGTON_LON WELLINGTON_WIND WELLINGTON_PRES DS824_LAT DS824_LON DS824_STAGE DS824_WIND DS824_PRES TD9636_LAT TD9636_LON TD9636_STAGE TD9636_WIND TD9636_PRES TD9635_LAT TD9635_LON TD9635_WIND TD9635_PRES TD9635_ROCI NEUMANN_LAT NEUMANN_LON NEUMANN_CLASS NEUMANN_WIND NEUMANN_PRES MLC_LAT MLC_LON MLC_CLASS MLC_WIND MLC_PRES USA_GUST BOM_GUST BOM_GUST_PER REUNION_GUST REUNION_GUST_PER USA_SEAHGT USA_SEARAD_NE USA_SEARAD_SE USA_SEARAD_SW USA_SEARAD_NW STORM_SPEED STORM_DIR
1993235N20307 1993 59 NA NA EMILY 1993-08-22 18:00:00 TS 19.9000 -52.6000 30 1020 hurdat_atl main 1367 1326 O_____________ hurdat_atl AL051993 19.9000 -52.6000 TD 30 1020 -1 11 302
1993235N20307 1993 59 NA NA EMILY 1993-08-22 21:00:00 TS 20.1852 -53.0797 main 1326 1279 P_____________ AL051993 20.1852 -53.0797 TD 30 1020 -1 11 303
1993235N20307 1993 59 NA NA EMILY 1993-08-23 00:00:00 TS 20.5000 -53.6000 30 1020 hurdat_atl main 1279 1223 O_____________ hurdat_atl AL051993 20.5000 -53.6000 TD 30 1020 -1 12 303
1993235N20307 1993 59 NA NA EMILY 1993-08-23 03:00:00 TS 20.8699 -54.1852 main 1225 1174 P_____________ AL051993 20.8699 -54.1852 TD 30 1020 -1 14 306
1993235N20307 1993 59 NA NA EMILY 1993-08-23 06:00:00 TS 21.3000 -54.8000 30 1020 hurdat_atl main 1174 1130 O_____________ hurdat_atl AL051993 21.3000 -54.8000 TD 30 1020 -1 15 309
1993235N20307 1993 59 NA NA EMILY 1993-08-23 09:00:00 TS 21.7924 -55.4076 main 1130 1091 P_____________ AL051993 21.7924 -55.4076 TD 30 1020 -1 15 312
1993235N20307 1993 59 NA NA EMILY 1993-08-23 12:00:00 TS 22.3000 -56.0000 30 1020 hurdat_atl main 1091 1052 O_____________ hurdat_atl AL051993 22.3000 -56.0000 TD 30 1020 -1 15 311
1993235N20307 1993 59 NA NA EMILY 1993-08-23 15:00:00 TS 22.7425 -56.5878 main 1052 1027 P_____________ AL051993 22.7425 -56.5878 TD 30 1020 -1 14 312
1993235N20307 1993 59 NA NA EMILY 1993-08-23 18:00:00 TS 23.2000 -57.1000 30 1020 hurdat_atl main 1033 1024 O_____________ hurdat_atl AL051993 23.2000 -57.1000 TD 30 1020 -1 13 321
1993235N20307 1993 59 NA NA EMILY 1993-08-23 21:00:00 TS 23.7346 -57.4731 main 1027 1027 P_____________ AL051993 23.7346 -57.4731 TD 30 1020 -1 13 330
1993235N20307 1993 59 NA NA EMILY 1993-08-24 00:00:00 TS 24.3000 -57.8000 30 1020 hurdat_atl main 1042 1040 O_____________ hurdat_atl AL051993 24.3000 -57.8000 TD 30 1020 -1 13 329
1993235N20307 1993 59 NA NA EMILY 1993-08-24 03:00:00 TS 24.8349 -58.1855 main 1046 1046 P_____________ AL051993 24.8349 -58.1855 TD 30 1020 -1 13 327
1993235N20307 1993 59 NA NA EMILY 1993-08-24 06:00:00 TS 25.4000 -58.6000 30 1020 hurdat_atl main 1064 1064 O_____________ hurdat_atl AL051993 25.4000 -58.6000 TD 30 1020 -1 15 327
1993235N20307 1993 59 NA NA EMILY 1993-08-24 09:00:00 TS 26.0652 -59.0720 main 1089 1089 P_____________ AL051993 26.0652 -59.0720 TD 30 1020 -1 15 328
1993235N20307 1993 59 NA NA EMILY 1993-08-24 12:00:00 TS 26.7000 -59.5000 30 1020 hurdat_atl main 1118 1118 O_____________ hurdat_atl AL051993 26.7000 -59.5000 TD 30 1020 -1 13 331
1993235N20307 1993 59 NA NA EMILY 1993-08-24 15:00:00 TS 27.2173 -59.7955 main 1148 1148 P_____________ AL051993 27.2173 -59.7955 TD 30 1019 -1 10 334
1993235N20307 1993 59 NA NA EMILY 1993-08-24 18:00:00 TS 27.6000 -60.0000 30 1019 hurdat_atl main 1176 1176 O_____________ hurdat_atl AL051993 27.6000 -60.0000 TD 30 1019 -1 7 333
1993235N20307 1993 59 NA NA EMILY 1993-08-24 21:00:00 TS 27.8749 -60.1727 main 1196 1196 P_____________ AL051993 27.8749 -60.1727 TD 30 1018 -1 5 326
1993235N20307 1993 59 NA NA EMILY 1993-08-25 00:00:00 TS 28.0000 -60.3000 30 1018 hurdat_atl main 1201 1196 O_____________ hurdat_atl AL051993 28.0000 -60.3000 TD 30 1018 -1 2 293
1993235N20307 1993 59 NA NA EMILY 1993-08-25 03:00:00 TS 27.9725 -60.4302 main 1196 1182 P_____________ AL051993 27.9725 -60.4302 TD 30 1017 -1 2 240
1993235N20307 1993 59 NA NA EMILY 1993-08-25 06:00:00 TS 27.9000 -60.5000 30 1017 hurdat_atl main 1182 1182 O_____________ hurdat_atl AL051993 27.9000 -60.5000 TD 30 1017 -1 1 216
1993235N20307 1993 59 NA NA EMILY 1993-08-25 09:00:00 TS 27.9275 -60.4650 main 1182 1182 P_____________ AL051993 27.9275 -60.4650 TD 32 1016 -1 1 40
1993235N20307 1993 59 NA NA EMILY 1993-08-25 12:00:00 TS 28.0000 -60.4000 35 1016 hurdat_atl main 1196 1196 O_____________ hurdat_atl AL051993 28.0000 -60.4000 TS 35 1016 0 2 25
1993235N20307 1993 59 NA NA EMILY 1993-08-25 15:00:00 TS 28.1000 -60.3700 main 1206 1206 P_____________ AL051993 28.1000 -60.3700 TS 37 1015 0 2 8
1993235N20307 1993 59 NA NA EMILY 1993-08-25 18:00:00 TS 28.2000 -60.4000 40 1015 hurdat_atl main 1216 1216 O_____________ hurdat_atl AL051993 28.2000 -60.4000 TS 40 1015 0 2 325
1993235N20307 1993 59 NA NA EMILY 1993-08-25 21:00:00 TS 28.2950 -60.5273 main 1222 1213 P_____________ AL051993 28.2950 -60.5273 TS 42 1014 0 3 291
1993235N20307 1993 59 NA NA EMILY 1993-08-26 00:00:00 TS 28.3000 -60.7000 45 1013 hurdat_atl main 1213 1199 O_____________ hurdat_atl AL051993 28.3000 -60.7000 TS 45 1013 0 3 243
1993235N20307 1993 59 NA NA EMILY 1993-08-26 03:00:00 TS 28.1450 -60.8576 main 1185 1160 P_____________ AL051993 28.1450 -60.8576 TS 50 1011 0 5 214
1993235N20307 1993 59 NA NA EMILY 1993-08-26 06:00:00 TS 27.9000 -61.0000 55 1010 hurdat_atl main 1160 1136 O_____________ hurdat_atl AL051993 27.9000 -61.0000 TS 55 1010 0 5 203
1993235N20307 1993 59 NA NA EMILY 1993-08-26 09:00:00 TS 27.6574 -61.0848 main 1136 1101 P_____________ AL051993 27.6574 -61.0848 TS 57 1008 0 5 200
1993235N20307 1993 59 NA NA EMILY 1993-08-26 12:00:00 TS 27.4000 -61.2000 60 1007 hurdat_atl main 1101 1063 O_____________ hurdat_atl AL051993 27.4000 -61.2000 TS 60 1007 0 6 209
1993235N20307 1993 59 NA NA EMILY 1993-08-26 15:00:00 TS 27.1350 -61.4126 main 1063 1030 P_____________ AL051993 27.1350 -61.4126 TS 62 1005 0 7 222
1993235N20307 1993 59 NA NA EMILY 1993-08-26 18:00:00 TS 26.9000 -61.7000 65 1004 hurdat_atl main 1030 998 O_____________ hurdat_atl AL051993 26.9000 -61.7000 HU 65 1004 1 7 234
1993235N20307 1993 59 NA NA EMILY 1993-08-26 21:00:00 TS 26.7276 -62.0424 main 998 973 P_____________ AL051993 26.7276 -62.0424 HU 62 1002 0 7 244
1993235N20307 1993 59 NA NA EMILY 1993-08-27 00:00:00 TS 26.6000 -62.4000 60 1000 hurdat_atl main 973 953 O_____________ hurdat_atl AL051993 26.6000 -62.4000 TS 60 1000 0 6 248
1993235N20307 1993 59 NA NA EMILY 1993-08-27 03:00:00 TS 26.4849 -62.7149 main 953 933 P_____________ AL051993 26.4849 -62.7149 TS 60 998 0 6 250
1993235N20307 1993 59 NA NA EMILY 1993-08-27 06:00:00 TS 26.4000 -63.0000 60 997 hurdat_atl main 933 916 O_____________ hurdat_atl AL051993 26.4000 -63.0000 TS 60 997 0 5 251
1993235N20307 1993 59 NA NA EMILY 1993-08-27 09:00:00 TS 26.3272 -63.2275 main 916 909 P_____________ AL051993 26.3272 -63.2275 TS 60 994 0 5 257
1993235N20307 1993 59 NA NA EMILY 1993-08-27 12:00:00 TS 26.3000 -63.5000 60 992 hurdat_atl main 909 900 O_____________ hurdat_atl AL051993 26.3000 -63.5000 TS 60 992 0 6 270
1993235N20307 1993 59 NA NA EMILY 1993-08-27 15:00:00 TS 26.3277 -63.9275 main 900 896 P_____________ AL051993 26.3277 -63.9275 TS 62 987 0 8 277
1993235N20307 1993 59 NA NA EMILY 1993-08-27 18:00:00 TS 26.4000 -64.4000 65 982 hurdat_atl main 902 899 O_____________ hurdat_atl AL051993 26.4000 -64.4000 HU 65 982 1 8 281
1993235N20307 1993 59 NA NA EMILY 1993-08-27 21:00:00 TS 26.4773 -64.8002 main 909 907 P_____________ AL051993 26.4773 -64.8002 HU 70 981 1 7 286
1993235N20307 1993 59 NA NA EMILY 1993-08-28 00:00:00 TS 26.6000 -65.2000 75 981 hurdat_atl main 917 912 O_____________ hurdat_atl AL051993 26.6000 -65.2000 HU 75 981 1 8 292
1993235N20307 1993 59 NA NA EMILY 1993-08-28 03:00:00 TS 26.7850 -65.6499 main 919 911 P_____________ AL051993 26.7850 -65.6499 HU 75 981 1 9 296
1993235N20307 1993 59 NA NA EMILY 1993-08-28 06:00:00 TS 27.0000 -66.1000 75 982 hurdat_atl main 917 913 O_____________ hurdat_atl AL051993 27.0000 -66.1000 HU 75 982 1 9 297
1993235N20307 1993 59 NA NA EMILY 1993-08-28 09:00:00 TS 27.1849 -66.5153 main 921 917 P_____________ AL051993 27.1849 -66.5153 HU 75 981 1 8 299
1993235N20307 1993 59 NA NA EMILY 1993-08-28 12:00:00 TS 27.4000 -66.9000 75 981 hurdat_atl main 927 921 O_____________ hurdat_atl AL051993 27.4000 -66.9000 HU 75 981 1 8 307
1993235N20307 1993 59 NA NA EMILY 1993-08-28 15:00:00 TS 27.6849 -67.2650 main 927 927 P_____________ AL051993 27.6849 -67.2650 HU 75 978 1 9 314
1993235N20307 1993 59 NA NA EMILY 1993-08-28 18:00:00 TS 28.0000 -67.6000 75 976 hurdat_atl main 935 929 O_____________ hurdat_atl AL051993 28.0000 -67.6000 HU 75 976 1 8 317
1993235N20307 1993 59 NA NA EMILY 1993-08-28 21:00:00 TS 28.2924 -67.9078 main 945 939 P_____________ AL051993 28.2924 -67.9078 HU 72 974 1 8 319
1993235N20307 1993 59 NA NA EMILY 1993-08-29 00:00:00 TS 28.6000 -68.2000 70 973 hurdat_atl main 957 957 O_____________ hurdat_atl AL051993 28.6000 -68.2000 HU 70 973 1 8 321
1993235N20307 1993 59 NA NA EMILY 1993-08-29 03:00:00 TS 28.9425 -68.5150 main 972 941 P_____________ AL051993 28.9425 -68.5150 HU 70 975 1 9 323
1993235N20307 1993 59 NA NA EMILY 1993-08-29 06:00:00 TS 29.3000 -68.8000 70 978 hurdat_atl main 941 904 O_____________ hurdat_atl AL051993 29.3000 -68.8000 HU 70 978 1 8 329
1993235N20307 1993 59 NA NA EMILY 1993-08-29 09:00:00 TS 29.6574 -69.0078 main 896 860 P_____________ AL051993 29.6574 -69.0078 HU 70 978 1 8 334
1993235N20307 1993 59 NA NA EMILY 1993-08-29 12:00:00 TS 30.0000 -69.2000 70 979 hurdat_atl main 860 823 O_____________ hurdat_atl AL051993 30.0000 -69.2000 HU 70 979 1 8 330
1993235N20307 1993 59 NA NA EMILY 1993-08-29 15:00:00 TS 30.3075 -69.4426 main 823 780 P_____________ AL051993 30.3075 -69.4426 HU 70 978 1 7 324
1993235N20307 1993 59 NA NA EMILY 1993-08-29 18:00:00 TS 30.6000 -69.7000 70 978 hurdat_atl main 780 744 O_____________ hurdat_atl AL051993 30.6000 -69.7000 HU 70 978 1 8 325
1993235N20307 1993 59 NA NA EMILY 1993-08-29 21:00:00 TS 30.9224 -69.9425 main 744 701 P_____________ AL051993 30.9224 -69.9425 HU 70 977 1 7 324
1993235N20307 1993 59 NA NA EMILY 1993-08-30 00:00:00 TS 31.2000 -70.2000 70 977 hurdat_atl main 701 665 O_____________ hurdat_atl AL051993 31.2000 -70.2000 HU 70 977 1 7 314
1993235N20307 1993 59 NA NA EMILY 1993-08-30 03:00:00 TS 31.3725 -70.4927 main 665 635 P_____________ AL051993 31.3725 -70.4927 HU 70 976 1 6 300
1993235N20307 1993 59 NA NA EMILY 1993-08-30 06:00:00 TS 31.5000 -70.8000 70 976 hurdat_atl main 635 606 O_____________ hurdat_atl AL051993 31.5000 -70.8000 HU 70 976 1 6 299
1993235N20307 1993 59 NA NA EMILY 1993-08-30 09:00:00 TS 31.6573 -71.0851 main 599 570 P_____________ AL051993 31.6573 -71.0851 HU 72 975 1 6 300
1993235N20307 1993 59 NA NA EMILY 1993-08-30 12:00:00 TS 31.8000 -71.4000 75 975 hurdat_atl main 570 534 O_____________ hurdat_atl AL051993 31.8000 -71.4000 HU 75 975 1 6 292
1993235N20307 1993 59 NA NA EMILY 1993-08-30 15:00:00 TS 31.8925 -71.7853 main 534 498 P_____________ AL051993 31.8925 -71.7853 HU 75 974 1 7 286
1993235N20307 1993 59 NA NA EMILY 1993-08-30 18:00:00 TS 32.0000 -72.2000 75 974 hurdat_atl main 498 455 O_____________ hurdat_atl AL051993 32.0000 -72.2000 HU 75 974 1 7 292
1993235N20307 1993 59 NA NA EMILY 1993-08-30 21:00:00 TS 32.1774 -72.6001 main 455 412 P_____________ AL051993 32.1774 -72.6001 HU 77 973 1 8 301
1993235N20307 1993 59 NA NA EMILY 1993-08-31 00:00:00 TS 32.4000 -73.0000 80 972 hurdat_atl main 412 369 O_____________ hurdat_atl AL051993 32.4000 -73.0000 HU 80 972 1 8 304
1993235N20307 1993 59 NA NA EMILY 1993-08-31 03:00:00 TS 32.6273 -73.3929 main 369 319 P_____________ AL051993 32.6273 -73.3929 HU 82 971 1 8 307
1993235N20307 1993 59 NA NA EMILY 1993-08-31 06:00:00 TS 32.9000 -73.8000 85 970 hurdat_atl main 319 269 O_____________ hurdat_atl AL051993 32.9000 -73.8000 HU 85 970 2 9 309
1993235N20307 1993 59 NA NA EMILY 1993-08-31 09:00:00 TS 33.2202 -74.2724 main 262 205 P_____________ AL051993 33.2202 -74.2724 HU 90 967 2 10 313
1993235N20307 1993 59 NA NA EMILY 1993-08-31 12:00:00 TS 33.6000 -74.7000 95 965 hurdat_atl main 205 155 O_____________ hurdat_atl AL051993 33.6000 -74.7000 HU 95 965 2 10 320
1993235N20307 1993 59 NA NA EMILY 1993-08-31 15:00:00 TS 33.9851 -75.0486 main 155 109 P_____________ AL051993 33.9851 -75.0486 HU 97 963 3 10 335
1993235N20307 1993 59 NA NA EMILY 1993-08-31 18:00:00 TS 34.5000 -75.2000 100 962 hurdat_atl main 109 70 O_____________ hurdat_atl AL051993 34.5000 -75.2000 HU 100 962 3 12 358
1993235N20307 1993 59 NA NA EMILY 1993-08-31 21:00:00 TS 35.2000 -75.1000 100 961 hurdat_atl main 70 56 O_____________ hurdat_atl AL051993 35.2000 -75.1000 C HU 100 961 3 11 13
1993235N20307 1993 59 NA NA EMILY 1993-09-01 00:00:00 TS 35.6000 -74.9000 100 960 hurdat_atl main 58 53 O_____________ hurdat_atl AL051993 35.6000 -74.9000 HU 100 960 3 9 18
1993235N20307 1993 59 NA NA EMILY 1993-09-01 03:00:00 TS 36.0854 -74.7406 main 79 79 P_____________ AL051993 36.0854 -74.7406 HU 100 961 3 11 22
1993235N20307 1993 59 NA NA EMILY 1993-09-01 06:00:00 TS 36.6000 -74.4000 100 962 hurdat_atl main 124 124 O_____________ hurdat_atl AL051993 36.6000 -74.4000 HU 100 962 3 13 41
1993235N20307 1993 59 NA NA EMILY 1993-09-01 09:00:00 TS 37.0728 -73.6631 main 176 176 P_____________ AL051993 37.0728 -73.6631 HU 97 963 3 16 56
1993235N20307 1993 59 NA NA EMILY 1993-09-01 12:00:00 TS 37.5000 -72.7000 95 965 hurdat_atl main 228 228 O_____________ hurdat_atl AL051993 37.5000 -72.7000 HU 95 965 2 17 63
1993235N20307 1993 59 NA NA EMILY 1993-09-01 15:00:00 TS 37.8568 -71.7357 main 286 286 P_____________ AL051993 37.8568 -71.7357 HU 92 967 2 17 66
1993235N20307 1993 59 NA NA EMILY 1993-09-01 18:00:00 TS 38.2000 -70.7000 90 969 hurdat_atl main 331 331 O_____________ hurdat_atl AL051993 38.2000 -70.7000 HU 90 969 2 18 65
1993235N20307 1993 59 NA NA EMILY 1993-09-01 21:00:00 TS 38.6362 -69.6387 main 335 319 P_____________ AL051993 38.6362 -69.6387 HU 90 970 2 19 65
1993235N20307 1993 59 NA NA EMILY 1993-09-02 00:00:00 TS 39.0000 -68.5000 90 971 hurdat_atl main 326 326 O_____________ hurdat_atl AL051993 39.0000 -68.5000 HU 90 971 2 19 74
1993235N20307 1993 59 NA NA EMILY 1993-09-02 03:00:00 TS 39.1595 -67.2634 main 359 359 P_____________ AL051993 39.1595 -67.2634 HU 90 971 2 19 84
1993235N20307 1993 59 NA NA EMILY 1993-09-02 06:00:00 TS 39.2000 -66.0000 90 972 hurdat_atl main 437 437 O_____________ hurdat_atl AL051993 39.2000 -66.0000 HU 90 972 2 19 88
1993235N20307 1993 59 NA NA EMILY 1993-09-02 09:00:00 TS 39.2290 -64.7775 main 480 480 P_____________ AL051993 39.2290 -64.7775 HU 90 972 2 19 90
1993235N20307 1993 59 NA NA EMILY 1993-09-02 12:00:00 TS 39.2000 -63.6000 90 973 hurdat_atl main 498 498 O_____________ hurdat_atl AL051993 39.2000 -63.6000 HU 90 973 2 18 93
1993235N20307 1993 59 NA NA EMILY 1993-09-02 15:00:00 TS 39.1293 -62.4552 main 542 542 P_____________ AL051993 39.1293 -62.4552 HU 87 973 2 17 97
1993235N20307 1993 59 NA NA EMILY 1993-09-02 18:00:00 TS 39.0000 -61.4000 85 974 hurdat_atl main 596 596 O_____________ hurdat_atl AL051993 39.0000 -61.4000 HU 85 974 2 16 101
1993235N20307 1993 59 NA NA EMILY 1993-09-02 21:00:00 TS 38.8218 -60.4326 main 663 663 P_____________ AL051993 38.8218 -60.4326 HU 82 974 1 15 106
1993235N20307 1993 59 NA NA EMILY 1993-09-03 00:00:00 TS 38.6000 -59.6000 80 975 hurdat_atl main 722 722 O_____________ hurdat_atl AL051993 38.6000 -59.6000 HU 80 975 1 13 110
1993235N20307 1993 59 NA NA EMILY 1993-09-03 03:00:00 TS 38.3646 -58.8602 main 771 771 P_____________ AL051993 38.3646 -58.8602 HU 77 977 1 11 116
1993235N20307 1993 59 NA NA EMILY 1993-09-03 06:00:00 TS 38.1000 -58.3000 75 979 hurdat_atl main 822 822 O_____________ hurdat_atl AL051993 38.1000 -58.3000 HU 75 979 1 9 127
1993235N20307 1993 59 NA NA EMILY 1993-09-03 09:00:00 TS 37.8070 -57.9179 main 864 864 P_____________ AL051993 37.8070 -57.9179 HU 72 982 1 8 142
1993235N20307 1993 59 NA NA EMILY 1993-09-03 12:00:00 TS 37.5000 -57.7000 70 985 hurdat_atl main 901 901 O_____________ hurdat_atl AL051993 37.5000 -57.7000 HU 70 985 1 7 155
1993235N20307 1993 59 NA NA EMILY 1993-09-03 15:00:00 TS 37.1924 -57.5477 main 939 939 P_____________ AL051993 37.1924 -57.5477 HU 65 989 1 6 165
1993235N20307 1993 59 NA NA EMILY 1993-09-03 18:00:00 TS 36.9000 -57.5000 60 994 hurdat_atl main 970 970 O_____________ hurdat_atl AL051993 36.9000 -57.5000 TS 60 994 0 6 0
1993235N20307 1993 59 NA NA EMILY 1993-09-03 21:00:00 TS 36.6350 -57.5353 main 1002 1000 P_____________ AL051993 36.6350 -57.5353 TS 55 996 0 5 189
1993235N20307 1993 59 NA NA EMILY 1993-09-04 00:00:00 TS 36.4000 -57.6000 50 999 hurdat_atl main 1021 1021 O_____________ hurdat_atl AL051993 36.4000 -57.6000 TS 50 999 0 5 189
1993235N20307 1993 59 NA NA EMILY 1993-09-04 03:00:00 TS 36.1775 -57.6150 main 1041 1041 P_____________ AL051993 36.1775 -57.6150 TS 45 1000 0 4 0
1993235N20307 1993 59 NA NA EMILY 1993-09-04 06:00:00 TS 36.0000 -57.6000 40 1002 hurdat_atl main 1060 1060 O_____________ hurdat_atl AL051993 36.0000 -57.6000 TS 40 1002 0 3 172
1993235N20307 1993 59 NA NA EMILY 1993-09-04 09:00:00 TS 35.8475 -57.5724 main 1078 1078 P_____________ AL051993 35.8475 -57.5724 TS 37 1001 0 2 157
1993235N20307 1993 59 NA NA EMILY 1993-09-04 12:00:00 TS 35.8000 -57.5000 35 1001 hurdat_atl main 1084 1079 O_____________ hurdat_atl AL051993 35.8000 -57.5000 TS 35 1001 0 2 76
1993235N20307 1993 59 NA NA EMILY 1993-09-04 15:00:00 TS 35.8900 -57.3650 main 1079 1064 P_____________ AL051993 35.8900 -57.3650 TS 32 1003 -1 4 39
1993235N20307 1993 59 NA NA EMILY 1993-09-04 18:00:00 TS 36.1000 -57.2000 30 1006 hurdat_atl main 1064 1034 O_____________ hurdat_atl AL051993 36.1000 -57.2000 TD 30 1006 -1 5 27
1993235N20307 1993 59 NA NA EMILY 1993-09-04 21:00:00 TS 36.3699 -57.0648 main 1034 1008 P_____________ AL051993 36.3699 -57.0648 TD 30 1007 -1 6 22
1993235N20307 1993 59 NA NA EMILY 1993-09-05 00:00:00 TS 36.7000 -56.9000 30 1008 hurdat_atl main 1008 983 O_____________ hurdat_atl AL051993 36.7000 -56.9000 TD 30 1008 -1 7 24
1993235N20307 1993 59 NA NA EMILY 1993-09-05 03:00:00 TS 37.0499 -56.6799 main 983 951 P_____________ AL051993 37.0499 -56.6799 TD 30 1008 -1 8 30
1993235N20307 1993 59 NA NA EMILY 1993-09-05 06:00:00 TS 37.4000 -56.4000 30 1009 hurdat_atl main 951 931 O_____________ hurdat_atl AL051993 37.4000 -56.4000 TD 30 1009 -1 8 36
1993235N20307 1993 59 NA NA EMILY 1993-09-05 09:00:00 TS 37.6999 -56.0795 main 931 916 P_____________ AL051993 37.6999 -56.0795 TD 27 1009 -1 8 43
1993235N20307 1993 59 NA NA EMILY 1993-09-05 12:00:00 TS 38.0000 -55.7000 25 1010 hurdat_atl main 916 890 O_____________ hurdat_atl AL051993 38.0000 -55.7000 TD 25 1010 -1 9 41
1993235N20307 1993 59 NA NA EMILY 1993-09-05 15:00:00 TS 38.3714 -55.3323 main 894 883 P_____________ AL051993 38.3714 -55.3323 TD 25 1010 -1 10 45
1993235N20307 1993 59 NA NA EMILY 1993-09-05 18:00:00 TS 38.7000 -54.8000 25 1011 hurdat_atl main 883 856 O_____________ hurdat_atl AL051993 38.7000 -54.8000 TD 25 1011 -1 12 64
1993235N20307 1993 59 NA NA EMILY 1993-09-05 21:00:00 TS 38.8804 -53.9742 main 856 845 P_____________ AL051993 38.8804 -53.9742 TD 25 1011 -1 14 78
1993235N20307 1993 59 NA NA EMILY 1993-09-06 00:00:00 TS 39.0000 -53.0000 25 1012 hurdat_atl main 845 835 O_____________ hurdat_atl AL051993 39.0000 -53.0000 TD 25 1012 -1 15 80
1993235N20307 1993 59 NA NA EMILY 1993-09-06 03:00:00 TS 39.1348 -52.0417 main 839 826 P_____________ AL051993 39.1348 -52.0417 TD 25 1012 -1 15 78
1993235N20307 1993 59 NA NA EMILY 1993-09-06 06:00:00 TS 39.3000 -51.1000 25 1013 hurdat_atl main 829 819 O_____________ hurdat_atl AL051993 39.3000 -51.1000 TD 25 1013 -1 15 74
1993235N20307 1993 59 NA NA EMILY 1993-09-06 09:00:00 TS 39.5308 -50.2291 main 825 812 P_____________ AL051993 39.5308 -50.2291 TD 25 1013 -1 14 69
1993235N20307 1993 59 NA NA EMILY 1993-09-06 12:00:00 ET 39.8000 -49.4000 25 1014 hurdat_atl main 815 O_____________ hurdat_atl AL051993 39.8000 -49.4000 EX 25 1014 -4 14 67

About IBTrACS Database

This database is a web-friendly format of International Best Track Archive for Climate Stewardship (IBTrACS), a global best track data archive curated by NOAA dating back to 1842.

Updated: 2021-12-08